createdAt,value
2018-11-04T00:01:36.174Z,10.70
2018-11-04T00:04:11.207Z,10.70
2018-11-04T00:06:45.444Z,10.60
2018-11-04T00:09:20.782Z,10.60
2018-11-04T00:11:55.301Z,10.60
2018-11-04T00:14:30.157Z,10.50
2018-11-04T00:17:04.767Z,10.60
2018-11-04T00:19:39.403Z,10.60
2018-11-04T00:22:13.940Z,10.60
2018-11-04T00:24:48.487Z,10.60
2018-11-04T00:27:23.290Z,10.60
2018-11-04T00:29:57.842Z,10.60
2018-11-04T00:32:32.451Z,10.60
2018-11-04T00:35:07.238Z,10.60
2018-11-04T00:37:41.771Z,10.60
2018-11-04T00:40:15.990Z,10.60
2018-11-04T00:42:50.749Z,10.60
2018-11-04T00:45:25.295Z,10.60
2018-11-04T00:47:59.972Z,10.60
2018-11-04T00:50:34.226Z,10.60
2018-11-04T00:53:08.776Z,10.60
2018-11-04T00:55:47.156Z,10.60
2018-11-04T00:58:23.405Z,10.60
2018-11-04T01:00:58.153Z,10.50
2018-11-04T01:03:32.468Z,10.50
2018-11-04T01:06:07.004Z,10.50
2018-11-04T01:08:41.547Z,10.60
2018-11-04T01:11:16.161Z,10.60
2018-11-04T01:13:50.729Z,10.60
2018-11-04T01:16:25.370Z,10.60
2018-11-04T01:18:59.901Z,10.60
2018-11-04T01:21:34.434Z,10.60
2018-11-04T01:24:08.864Z,10.60
2018-11-04T01:26:43.575Z,10.60
2018-11-04T01:29:18.155Z,10.60
2018-11-04T01:31:52.813Z,10.60
2018-11-04T01:34:27.272Z,10.60
2018-11-04T01:37:01.978Z,10.60
2018-11-04T01:39:36.553Z,10.60
2018-11-04T01:42:11.046Z,10.60
2018-11-04T01:44:45.729Z,10.60
2018-11-04T01:47:20.261Z,10.60
2018-11-04T01:49:54.959Z,10.50
2018-11-04T01:52:29.567Z,10.50
2018-11-04T01:55:04.511Z,10.50
2018-11-04T01:57:38.596Z,10.50
2018-11-04T02:00:14.751Z,10.50
2018-11-04T02:02:49.794Z,10.50
2018-11-04T02:05:24.489Z,10.50
2018-11-04T02:07:58.975Z,10.50
2018-11-04T02:10:33.506Z,10.50
2018-11-04T02:13:08.061Z,10.60
2018-11-04T02:15:42.684Z,10.60
2018-11-04T02:18:17.249Z,10.60
2018-11-04T02:20:52.585Z,10.60
2018-11-04T02:23:27.601Z,10.60
2018-11-04T02:26:02.011Z,10.50
2018-11-04T02:28:36.698Z,10.60
2018-11-04T02:31:11.294Z,10.60
2018-11-04T02:33:45.894Z,10.60
2018-11-04T02:36:20.508Z,10.50
2018-11-04T02:38:55.037Z,10.60
2018-11-04T02:41:29.606Z,10.50
2018-11-04T02:44:04.182Z,10.50
2018-11-04T02:46:38.674Z,10.50
2018-11-04T02:49:13.370Z,10.50
2018-11-04T02:51:48.239Z,10.50
2018-11-04T02:54:22.475Z,10.50
2018-11-04T02:56:57.097Z,10.50
2018-11-04T02:59:31.790Z,10.50
2018-11-04T03:02:06.661Z,10.50
2018-11-04T03:04:40.913Z,10.50
2018-11-04T03:07:15.721Z,10.50
2018-11-04T03:09:49.977Z,10.50
2018-11-04T03:12:24.545Z,10.50
2018-11-04T03:14:59.054Z,10.50
2018-11-04T03:17:33.427Z,10.50
2018-11-04T03:20:08.374Z,10.50
2018-11-04T03:22:42.562Z,10.60
2018-11-04T03:25:17.146Z,10.60
2018-11-04T03:27:51.838Z,10.60
2018-11-04T03:30:26.300Z,10.50
2018-11-04T03:33:00.741Z,10.60
2018-11-04T03:35:36.469Z,10.60
2018-11-04T03:38:10.921Z,10.60
2018-11-04T03:40:45.375Z,10.60
2018-11-04T03:43:19.976Z,10.60
2018-11-04T03:45:54.265Z,10.60
2018-11-04T03:48:28.758Z,10.60
2018-11-04T03:51:03.251Z,10.60
2018-11-04T03:53:37.882Z,10.60
2018-11-04T03:56:12.338Z,10.60
2018-11-04T03:58:46.934Z,10.60
2018-11-04T04:01:21.906Z,10.60
2018-11-04T04:03:56.114Z,10.60
2018-11-04T04:06:31.210Z,10.60
2018-11-04T04:09:07.954Z,10.60
2018-11-04T04:11:42.952Z,10.60
2018-11-04T04:14:17.560Z,10.60
2018-11-04T04:16:51.993Z,10.60
2018-11-04T04:19:26.551Z,10.60
2018-11-04T04:22:01.150Z,10.60
2018-11-04T04:24:35.810Z,10.60
2018-11-04T04:27:10.306Z,10.60
2018-11-04T04:29:44.891Z,10.60
2018-11-04T04:32:19.329Z,10.60
2018-11-04T04:34:53.892Z,10.60
2018-11-04T04:37:28.549Z,10.60
2018-11-04T04:40:03.685Z,10.60
2018-11-04T04:42:38.664Z,10.60
2018-11-04T04:45:13.346Z,10.60
2018-11-04T04:47:47.779Z,10.60
2018-11-04T04:50:22.226Z,10.70
2018-11-04T04:52:57.184Z,10.60
2018-11-04T04:55:31.417Z,10.70
2018-11-04T04:58:05.914Z,10.60
2018-11-04T05:00:40.486Z,10.70
2018-11-04T05:03:15.209Z,10.70
2018-11-04T05:05:50.013Z,10.70
2018-11-04T05:08:24.198Z,10.70
2018-11-04T05:10:58.679Z,10.70
2018-11-04T05:13:33.469Z,10.50
2018-11-04T05:16:08.354Z,10.60
2018-11-04T05:18:42.679Z,10.70
2018-11-04T05:21:17.254Z,10.70
2018-11-04T05:23:51.731Z,10.70
2018-11-04T05:26:26.199Z,10.70
2018-11-04T05:29:00.794Z,10.70
2018-11-04T05:31:35.200Z,10.70
2018-11-04T05:34:09.725Z,10.70
2018-11-04T05:36:44.181Z,10.70
2018-11-04T05:39:18.766Z,10.70
2018-11-04T05:41:53.250Z,10.70
2018-11-04T05:44:27.852Z,10.60
2018-11-04T05:47:02.431Z,10.70
2018-11-04T05:49:37.091Z,10.60
2018-11-04T05:52:11.486Z,10.60
2018-11-04T05:54:45.729Z,10.60
2018-11-04T05:57:20.292Z,10.60
2018-11-04T05:59:54.774Z,10.50
2018-11-04T06:02:29.282Z,10.50
2018-11-04T06:05:04.167Z,10.50
2018-11-04T06:07:38.446Z,10.50
2018-11-04T06:10:12.954Z,10.50
2018-11-04T06:12:47.594Z,10.50
2018-11-04T06:15:22.179Z,10.50
2018-11-04T06:17:57.189Z,10.50
2018-11-04T06:20:32.241Z,10.50
2018-11-04T06:23:06.787Z,10.50
2018-11-04T06:25:41.306Z,10.50
2018-11-04T06:28:15.941Z,10.50
2018-11-04T06:30:50.484Z,10.50
2018-11-04T06:33:25.192Z,10.50
2018-11-04T06:35:59.729Z,10.50
2018-11-04T06:38:34.415Z,10.50
2018-11-04T06:41:09.104Z,10.50
2018-11-04T06:43:43.464Z,10.50
2018-11-04T06:46:18.052Z,10.50
2018-11-04T06:48:52.471Z,10.40
2018-11-04T06:51:26.925Z,10.50
2018-11-04T06:54:01.446Z,10.50
2018-11-04T06:56:36.189Z,10.50
2018-11-04T06:59:10.418Z,10.50
2018-11-04T07:01:44.925Z,10.50
2018-11-04T07:04:22.885Z,10.50
2018-11-04T07:06:58.358Z,10.50
2018-11-04T07:09:32.526Z,10.40
2018-11-04T07:12:07.107Z,10.40
2018-11-04T07:14:41.797Z,10.40
2018-11-04T07:17:16.076Z,10.50
2018-11-04T07:19:50.895Z,10.50
2018-11-04T07:22:25.317Z,10.40
2018-11-04T07:24:59.729Z,10.40
2018-11-04T07:27:34.402Z,10.40
2018-11-04T07:30:10.619Z,10.40
2018-11-04T07:32:45.626Z,10.40
2018-11-04T07:35:20.097Z,10.40
2018-11-04T07:37:54.717Z,10.40
2018-11-04T07:40:29.249Z,10.40
2018-11-04T07:43:03.618Z,10.40
2018-11-04T07:45:38.198Z,10.50
2018-11-04T07:48:12.766Z,10.40
2018-11-04T07:50:47.204Z,10.50
2018-11-04T07:53:21.730Z,10.50
2018-11-04T07:55:56.287Z,10.50
2018-11-04T07:58:30.814Z,10.60
2018-11-04T08:01:05.627Z,10.50
2018-11-04T08:03:40.269Z,10.50
2018-11-04T08:06:14.516Z,10.50
2018-11-04T08:08:48.969Z,10.50
2018-11-04T08:11:23.501Z,10.50
2018-11-04T08:13:57.946Z,10.50
2018-11-04T08:16:32.878Z,10.50
2018-11-04T08:19:07.181Z,10.50
2018-11-04T08:21:42.744Z,10.50
2018-11-04T08:24:17.289Z,10.50
2018-11-04T08:26:51.866Z,10.50
2018-11-04T08:29:26.496Z,10.50
2018-11-04T08:32:01.117Z,10.50
2018-11-04T08:34:35.618Z,10.50
2018-11-04T08:37:10.171Z,10.50
2018-11-04T08:39:44.778Z,10.60
2018-11-04T08:42:19.310Z,10.60
2018-11-04T08:44:53.986Z,10.70
2018-11-04T08:47:28.426Z,10.70
2018-11-04T08:50:05.235Z,10.80
2018-11-04T08:52:39.839Z,10.80
2018-11-04T08:55:14.122Z,10.80
2018-11-04T08:57:48.645Z,10.90
2018-11-04T09:00:23.285Z,10.90
2018-11-04T09:02:57.722Z,10.90
2018-11-04T09:05:32.206Z,10.90
2018-11-04T09:08:06.630Z,10.90
2018-11-04T09:10:41.052Z,11.00
2018-11-04T09:13:15.867Z,11.00
2018-11-04T09:15:50.136Z,11.00
2018-11-04T09:18:24.478Z,11.00
2018-11-04T09:20:59.056Z,10.90
2018-11-04T09:23:33.643Z,11.00
2018-11-04T09:26:08.102Z,11.00
2018-11-04T09:28:42.576Z,10.90
2018-11-04T09:31:17.045Z,10.90
2018-11-04T09:33:51.701Z,11.00
2018-11-04T09:36:26.267Z,11.00
2018-11-04T09:39:00.783Z,11.10
2018-11-04T09:41:35.391Z,11.10
2018-11-04T09:44:09.823Z,11.10
2018-11-04T09:46:44.510Z,11.10
2018-11-04T09:49:19.218Z,11.10
2018-11-04T09:51:53.615Z,11.00
2018-11-04T09:54:28.394Z,11.10
2018-11-04T09:57:02.744Z,11.10
2018-11-04T09:59:37.126Z,11.10
2018-11-04T10:02:11.705Z,11.20
2018-11-04T10:04:46.449Z,11.20
2018-11-04T10:07:20.798Z,11.20
2018-11-04T10:09:55.705Z,11.30
2018-11-04T10:12:29.937Z,11.30
2018-11-04T10:15:06.002Z,11.40
2018-11-04T10:17:41.480Z,11.40
2018-11-04T10:20:16.862Z,11.50
2018-11-04T10:22:50.885Z,11.50
2018-11-04T10:25:25.506Z,11.50
2018-11-04T10:28:00.051Z,11.60
2018-11-04T10:30:34.633Z,11.60
2018-11-04T10:33:09.257Z,11.60
2018-11-04T10:35:43.838Z,11.60
2018-11-04T10:38:18.457Z,11.60
2018-11-04T10:40:53.035Z,11.60
2018-11-04T10:43:27.660Z,11.60
2018-11-04T10:46:02.266Z,11.60
2018-11-04T10:48:36.635Z,11.60
2018-11-04T10:51:11.102Z,11.60
2018-11-04T10:53:45.625Z,11.60
2018-11-04T10:56:20.075Z,11.60
2018-11-04T10:58:54.614Z,11.60
2018-11-04T11:01:31.337Z,11.60
2018-11-04T11:04:06.134Z,11.60
2018-11-04T11:06:41.253Z,11.50
2018-11-04T11:09:15.790Z,11.50
2018-11-04T11:11:51.394Z,11.50
2018-11-04T11:14:26.402Z,11.50
2018-11-04T11:17:00.501Z,11.50
2018-11-04T11:19:35.053Z,11.60
2018-11-04T11:22:09.753Z,11.60
2018-11-04T11:24:44.211Z,11.60
2018-11-04T11:27:19.082Z,11.60
2018-11-04T11:29:53.491Z,11.70
2018-11-04T11:32:28.041Z,11.70
2018-11-04T11:35:02.899Z,11.80
2018-11-04T11:37:37.304Z,11.80
2018-11-04T11:40:11.667Z,11.80
2018-11-04T11:42:46.217Z,11.80
2018-11-04T11:45:21.166Z,11.80
2018-11-04T11:47:55.435Z,11.80
2018-11-04T11:50:30.073Z,11.80
2018-11-04T11:53:05.090Z,11.80
2018-11-04T11:55:40.402Z,11.80
2018-11-04T11:58:14.615Z,11.80
2018-11-04T12:00:49.549Z,11.80
2018-11-04T12:03:24.563Z,11.80
2018-11-04T12:05:59.056Z,11.80
2018-11-04T12:08:33.753Z,11.80
2018-11-04T12:11:08.254Z,11.80
2018-11-04T12:13:42.937Z,11.80
2018-11-04T12:16:17.245Z,11.80
2018-11-04T12:18:51.797Z,11.80
2018-11-04T12:21:26.322Z,11.80
2018-11-04T12:24:00.874Z,11.80
2018-11-04T12:26:35.550Z,11.80
2018-11-04T12:29:09.945Z,11.80
2018-11-04T12:31:44.588Z,11.80
2018-11-04T12:34:18.867Z,11.80
2018-11-04T12:36:53.439Z,11.80
2018-11-04T12:39:28.020Z,11.80
2018-11-04T12:42:02.573Z,11.70
2018-11-04T12:44:37.417Z,11.70
2018-11-04T12:47:11.650Z,11.60
2018-11-04T12:49:46.157Z,11.60
2018-11-04T12:52:21.716Z,11.50
2018-11-04T12:54:56.237Z,11.50
2018-11-04T12:57:30.789Z,11.50
2018-11-04T13:00:11.512Z,11.60
2018-11-04T13:02:46.077Z,11.60
2018-11-04T13:05:21.565Z,11.60
2018-11-04T13:07:56.042Z,11.50
2018-11-04T13:10:34.958Z,11.50
2018-11-04T13:13:09.200Z,11.50
2018-11-04T13:15:43.831Z,11.50
2018-11-04T13:18:18.351Z,11.50
2018-11-04T13:20:52.907Z,11.50
2018-11-04T13:23:27.345Z,11.60
2018-11-04T13:26:02.253Z,11.60
2018-11-04T13:28:36.613Z,11.60
2018-11-04T13:31:11.177Z,11.60
2018-11-04T13:33:45.729Z,11.60
2018-11-04T13:36:20.282Z,11.70
2018-11-04T13:38:54.805Z,11.70
2018-11-04T13:41:29.292Z,11.80
2018-11-04T13:44:04.370Z,11.80
2018-11-04T13:46:39.452Z,11.80
2018-11-04T13:49:14.226Z,11.80
2018-11-04T13:51:48.472Z,11.80
2018-11-04T13:54:23.038Z,11.90
2018-11-04T13:56:57.443Z,11.90
2018-11-04T13:59:32.195Z,11.90
2018-11-04T14:02:06.751Z,11.80
2018-11-04T14:04:41.297Z,11.80
2018-11-04T14:07:15.838Z,11.90
2018-11-04T14:09:50.525Z,11.90
2018-11-04T14:12:25.317Z,11.90
2018-11-04T14:14:59.611Z,11.90
2018-11-04T14:17:34.269Z,11.90
2018-11-04T14:20:10.688Z,11.90
2018-11-04T14:22:45.120Z,11.90
2018-11-04T14:25:19.746Z,11.90
2018-11-04T14:27:54.317Z,11.80
2018-11-04T14:30:28.952Z,11.80
2018-11-04T14:33:03.410Z,11.80
2018-11-04T14:35:38.137Z,11.70
2018-11-04T14:38:12.509Z,11.70
2018-11-04T14:40:47.038Z,11.70
2018-11-04T14:43:21.619Z,11.60
2018-11-04T14:45:56.333Z,11.70
2018-11-04T14:48:30.975Z,11.60
2018-11-04T14:51:05.468Z,11.60
2018-11-04T14:53:39.863Z,11.60
2018-11-04T14:56:14.438Z,11.60
2018-11-04T14:58:48.842Z,11.60
2018-11-04T15:01:23.709Z,11.60
2018-11-04T15:04:01.906Z,11.60
2018-11-04T15:06:36.489Z,11.60
2018-11-04T15:09:11.034Z,11.60
2018-11-04T15:11:45.363Z,11.60
2018-11-04T15:14:20.039Z,11.60
2018-11-04T15:16:54.610Z,11.60
2018-11-04T15:19:29.328Z,11.50
2018-11-04T15:22:03.832Z,11.50
2018-11-04T15:24:38.631Z,11.50
2018-11-04T15:27:12.998Z,11.50
2018-11-04T15:29:47.592Z,11.40
2018-11-04T15:32:21.989Z,11.40
2018-11-04T15:34:56.417Z,11.40
2018-11-04T15:37:31.287Z,11.40
2018-11-04T15:40:09.255Z,11.40
2018-11-04T15:42:43.909Z,11.40
2018-11-04T15:45:18.513Z,11.40
2018-11-04T15:47:53.074Z,11.30
2018-11-04T15:50:27.550Z,11.30
2018-11-04T15:53:02.202Z,11.30
2018-11-04T15:55:36.658Z,11.20
2018-11-04T15:58:11.334Z,11.20
2018-11-04T16:00:45.925Z,11.20
2018-11-04T16:03:20.163Z,11.20
2018-11-04T16:05:54.955Z,11.20
2018-11-04T16:08:29.379Z,11.20
2018-11-04T16:11:03.921Z,11.20
2018-11-04T16:13:38.383Z,11.20
2018-11-04T16:16:13.167Z,11.20
2018-11-04T16:18:48.444Z,11.20
2018-11-04T16:21:22.833Z,11.20
2018-11-04T16:23:58.018Z,11.20
2018-11-04T16:26:32.961Z,11.20
2018-11-04T16:29:07.448Z,11.20
2018-11-04T16:31:41.939Z,11.20
2018-11-04T16:34:16.553Z,11.20
2018-11-04T16:36:51.220Z,11.10
2018-11-04T16:39:25.849Z,11.10
2018-11-04T16:42:00.143Z,11.00
2018-11-04T16:44:34.741Z,11.00
2018-11-04T16:47:09.361Z,11.00
2018-11-04T16:49:43.844Z,11.00
2018-11-04T16:52:18.489Z,11.00
2018-11-04T16:54:52.752Z,11.00
2018-11-04T16:57:27.318Z,11.00
2018-11-04T17:00:01.876Z,11.00
2018-11-04T17:02:37.177Z,11.00
2018-11-04T17:05:12.718Z,11.00
2018-11-04T17:07:47.239Z,11.00
2018-11-04T17:10:21.892Z,10.90
2018-11-04T17:12:57.152Z,10.90
2018-11-04T17:15:32.077Z,10.90
2018-11-04T17:18:06.518Z,11.00
2018-11-04T17:20:40.985Z,11.00
2018-11-04T17:23:15.542Z,10.90
2018-11-04T17:25:50.122Z,10.90
2018-11-04T17:28:24.587Z,11.00
2018-11-04T17:30:59.534Z,11.00
2018-11-04T17:33:34.506Z,11.00
2018-11-04T17:36:09.753Z,11.00
2018-11-04T17:38:44.786Z,11.00
2018-11-04T17:41:19.303Z,11.00
2018-11-04T17:43:53.713Z,11.00
2018-11-04T17:46:28.614Z,11.10
2018-11-04T17:49:04.449Z,11.00
2018-11-04T17:51:39.082Z,11.00
2018-11-04T17:54:13.861Z,11.00
2018-11-04T17:56:48.266Z,11.00
2018-11-04T17:59:22.790Z,11.00
2018-11-04T18:01:57.319Z,11.00
2018-11-04T18:04:31.835Z,11.00
2018-11-04T18:07:06.561Z,11.00
2018-11-04T18:09:40.973Z,10.90
2018-11-04T18:12:15.545Z,10.90
2018-11-04T18:14:50.278Z,10.90
2018-11-04T18:17:24.940Z,10.90
2018-11-04T18:19:59.461Z,10.90
2018-11-04T18:22:34.094Z,10.80
2018-11-04T18:25:10.546Z,10.90
2018-11-04T18:27:45.523Z,10.90
2018-11-04T18:30:20.317Z,10.90
2018-11-04T18:32:54.630Z,10.90
2018-11-04T18:35:29.362Z,10.90
2018-11-04T18:38:04.385Z,10.80
2018-11-04T18:40:39.543Z,10.90
2018-11-04T18:43:14.109Z,10.90
2018-11-04T18:45:48.896Z,10.90
2018-11-04T18:48:23.177Z,10.90
2018-11-04T18:50:58.061Z,10.90
2018-11-04T18:53:32.479Z,10.90
2018-11-04T18:56:06.994Z,10.90
2018-11-04T18:58:41.591Z,10.90
2018-11-04T19:01:15.979Z,10.90
2018-11-04T19:03:50.686Z,11.00
2018-11-04T19:06:25.140Z,11.00
2018-11-04T19:09:00.184Z,11.00
2018-11-04T19:11:35.277Z,11.00
2018-11-04T19:14:09.689Z,11.00
2018-11-04T19:16:44.140Z,11.00
2018-11-04T19:19:18.579Z,11.00
2018-11-04T19:21:53.488Z,11.00
2018-11-04T19:24:28.647Z,11.00
2018-11-04T19:27:03.260Z,11.00
2018-11-04T19:29:38.316Z,10.90
2018-11-04T19:32:13.437Z,10.90
2018-11-04T19:34:48.496Z,10.90
2018-11-04T19:37:23.435Z,10.90
2018-11-04T19:39:57.785Z,10.90
2018-11-04T19:42:32.484Z,10.90
2018-11-04T19:45:07.311Z,11.00
2018-11-04T19:47:42.834Z,10.90
2018-11-04T19:50:17.959Z,11.00
2018-11-04T19:52:52.444Z,11.00
2018-11-04T19:55:26.906Z,11.00
2018-11-04T19:58:01.490Z,11.00
2018-11-04T20:00:36.210Z,11.00
2018-11-04T20:03:10.724Z,11.00
2018-11-04T20:05:46.572Z,11.00
2018-11-04T20:08:21.796Z,11.00
2018-11-04T20:10:56.310Z,10.90
2018-11-04T20:13:36.501Z,10.90
2018-11-04T20:16:11.926Z,10.90
2018-11-04T20:18:52.551Z,10.90
2018-11-04T20:21:27.514Z,11.00
2018-11-04T20:24:06.522Z,10.90
2018-11-04T20:26:41.633Z,10.90
2018-11-04T20:29:15.974Z,10.90
2018-11-04T20:31:56.136Z,10.90
2018-11-04T20:34:31.168Z,10.90
2018-11-04T20:37:05.700Z,11.00
2018-11-04T20:39:45.614Z,10.90
2018-11-04T20:42:20.764Z,11.00
2018-11-04T20:44:55.535Z,11.00
2018-11-04T20:47:35.338Z,10.90
2018-11-04T20:50:16.000Z,10.90
2018-11-04T20:52:50.994Z,10.90
2018-11-04T20:55:30.982Z,10.90
2018-11-04T20:58:06.111Z,10.90
2018-11-04T21:00:40.399Z,10.80
2018-11-04T21:03:14.949Z,10.80
2018-11-04T21:05:49.940Z,10.80
2018-11-04T21:08:31.146Z,10.80
2018-11-04T21:11:06.005Z,10.80
2018-11-04T21:13:41.089Z,10.70
2018-11-04T21:16:15.617Z,10.80
2018-11-04T21:18:49.866Z,10.80
2018-11-04T21:21:25.279Z,10.80
2018-11-04T21:23:59.959Z,10.80
2018-11-04T21:26:34.373Z,10.80
2018-11-04T21:29:09.027Z,10.90
2018-11-04T21:31:43.338Z,10.80
2018-11-04T21:34:17.840Z,10.80
2018-11-04T21:36:52.436Z,10.80
2018-11-04T21:39:27.137Z,10.80
2018-11-04T21:42:01.873Z,10.80
2018-11-04T21:44:36.525Z,10.70
2018-11-04T21:47:10.853Z,10.70
2018-11-04T21:49:45.555Z,10.70
2018-11-04T21:52:20.222Z,10.70
2018-11-04T21:54:54.958Z,10.70
2018-11-04T21:57:29.793Z,10.70
2018-11-04T22:00:06.583Z,10.70
2018-11-04T22:02:40.900Z,10.70
2018-11-04T22:05:15.416Z,10.60
2018-11-04T22:07:49.867Z,10.70
2018-11-04T22:10:24.423Z,10.70
2018-11-04T22:12:59.106Z,10.70
2018-11-04T22:15:33.762Z,10.70
2018-11-04T22:18:08.151Z,10.70
2018-11-04T22:20:42.631Z,10.70
2018-11-04T22:23:17.242Z,10.70
2018-11-04T22:25:51.901Z,10.70
2018-11-04T22:28:26.505Z,10.60
2018-11-04T22:31:01.174Z,10.60
2018-11-04T22:33:35.758Z,10.60
2018-11-04T22:36:10.931Z,10.50
2018-11-04T22:38:45.975Z,10.50
2018-11-04T22:41:20.669Z,10.50
2018-11-04T22:43:55.284Z,10.50
2018-11-04T22:46:29.869Z,10.50
2018-11-04T22:49:04.808Z,10.40
2018-11-04T22:51:39.071Z,10.40
2018-11-04T22:54:13.703Z,10.40
2018-11-04T22:56:48.165Z,10.40
2018-11-04T22:59:22.734Z,10.40
2018-11-04T23:01:57.462Z,10.40
2018-11-04T23:04:38.430Z,10.50
2018-11-04T23:07:12.914Z,10.50
2018-11-04T23:09:47.570Z,10.40
2018-11-04T23:12:22.112Z,10.40
2018-11-04T23:14:56.722Z,10.40
2018-11-04T23:17:31.266Z,10.40
2018-11-04T23:20:07.514Z,10.40
2018-11-04T23:22:42.518Z,10.40
2018-11-04T23:25:17.111Z,10.40
2018-11-04T23:27:51.662Z,10.40
2018-11-04T23:30:26.190Z,10.40
2018-11-04T23:33:00.748Z,10.40
2018-11-04T23:35:35.371Z,10.40
2018-11-04T23:38:09.953Z,10.30
2018-11-04T23:40:44.641Z,10.30
2018-11-04T23:43:19.343Z,10.30
2018-11-04T23:45:54.207Z,10.20
2018-11-04T23:48:28.506Z,10.20
2018-11-04T23:51:03.314Z,10.10
2018-11-04T23:53:37.826Z,10.10
2018-11-04T23:56:12.428Z,10.10
2018-11-04T23:58:47.025Z,10.00
